sensor_id;sensor_type;location;lat;lon;timestamp;temperature;humidity
11961;DHT22;6040;49.358;11.140;2023-04-06T00:00:15;0.00;99.90
11961;DHT22;6040;49.358;11.140;2023-04-06T00:02:42;-0.10;99.90
11961;DHT22;6040;49.358;11.140;2023-04-06T00:05:09;-0.10;99.90
11961;DHT22;6040;49.358;11.140;2023-04-06T00:07:36;-0.10;99.90
11961;DHT22;6040;49.358;11.140;2023-04-06T00:10:05;0.10;99.90
11961;DHT22;6040;49.358;11.140;2023-04-06T00:12:32;-0.20;99.90
11961;DHT22;6040;49.358;11.140;2023-04-06T00:14:59;-0.20;99.90
11961;DHT22;6040;49.358;11.140;2023-04-06T00:17:28;-0.20;99.90
11961;DHT22;6040;49.358;11.140;2023-04-06T00:19:55;-0.20;99.90
11961;DHT22;6040;49.358;11.140;2023-04-06T00:22:22;-0.30;99.90
11961;DHT22;6040;49.358;11.140;2023-04-06T00:24:49;-0.30;99.90
11961;DHT22;6040;49.358;11.140;2023-04-06T00:27:16;-0.30;99.90
11961;DHT22;6040;49.358;11.140;2023-04-06T00:29:43;-0.30;99.90
11961;DHT22;6040;49.358;11.140;2023-04-06T00:32:10;-0.40;99.90
11961;DHT22;6040;49.358;11.140;2023-04-06T00:34:38;-0.40;99.90
11961;DHT22;6040;49.358;11.140;2023-04-06T00:37:05;-0.50;99.90
11961;DHT22;6040;49.358;11.140;2023-04-06T00:39:32;-0.50;99.90
11961;DHT22;6040;49.358;11.140;2023-04-06T00:41:59;-0.50;99.90
11961;DHT22;6040;49.358;11.140;2023-04-06T00:44:27;-0.20;99.90
11961;DHT22;6040;49.358;11.140;2023-04-06T00:46:53;-0.60;99.90
11961;DHT22;6040;49.358;11.140;2023-04-06T00:49:20;-0.60;99.90
11961;DHT22;6040;49.358;11.140;2023-04-06T00:51:49;-0.40;99.90
11961;DHT22;6040;49.358;11.140;2023-04-06T00:54:16;-0.70;99.90
11961;DHT22;6040;49.358;11.140;2023-04-06T00:56:43;-0.70;99.90
11961;DHT22;6040;49.358;11.140;2023-04-06T00:59:10;-0.50;99.90
11961;DHT22;6040;49.358;11.140;2023-04-06T01:01:37;-0.80;99.90
11961;DHT22;6040;49.358;11.140;2023-04-06T01:04:04;-0.90;99.90
11961;DHT22;6040;49.358;11.140;2023-04-06T01:06:31;-0.90;99.90
11961;DHT22;6040;49.358;11.140;2023-04-06T01:09:00;-0.90;99.90
11961;DHT22;6040;49.358;11.140;2023-04-06T01:11:27;-0.90;99.90
11961;DHT22;6040;49.358;11.140;2023-04-06T01:13:54;-1.00;99.90
11961;DHT22;6040;49.358;11.140;2023-04-06T01:16:21;-1.00;99.90
11961;DHT22;6040;49.358;11.140;2023-04-06T01:18:48;0.70;99.90
11961;DHT22;6040;49.358;11.140;2023-04-06T01:21:15;-1.00;99.90
11961;DHT22;6040;49.358;11.140;2023-04-06T01:23:45;-1.00;99.90
11961;DHT22;6040;49.358;11.140;2023-04-06T01:26:12;-1.10;99.90
11961;DHT22;6040;49.358;11.140;2023-04-06T01:28:39;-1.10;99.90
11961;DHT22;6040;49.358;11.140;2023-04-06T01:31:07;-0.20;99.90
11961;DHT22;6040;49.358;11.140;2023-04-06T01:33:35;0.70;99.90
11961;DHT22;6040;49.358;11.140;2023-04-06T01:36:02;-1.20;99.90
11961;DHT22;6040;49.358;11.140;2023-04-06T01:38:29;-1.20;99.90
11961;DHT22;6040;49.358;11.140;2023-04-06T01:40:57;-1.20;99.90
11961;DHT22;6040;49.358;11.140;2023-04-06T01:43:24;0.50;99.90
11961;DHT22;6040;49.358;11.140;2023-04-06T01:45:51;-1.30;99.90
11961;DHT22;6040;49.358;11.140;2023-04-06T01:48:18;-0.70;99.90
11961;DHT22;6040;49.358;11.140;2023-04-06T01:50:45;-1.30;99.90
11961;DHT22;6040;49.358;11.140;2023-04-06T01:53:12;0.20;99.90
11961;DHT22;6040;49.358;11.140;2023-04-06T01:55:39;-1.20;99.90
11961;DHT22;6040;49.358;11.140;2023-04-06T01:58:08;-1.30;99.90
11961;DHT22;6040;49.358;11.140;2023-04-06T02:00:35;-1.40;99.90
11961;DHT22;6040;49.358;11.140;2023-04-06T02:03:02;-1.40;99.90
11961;DHT22;6040;49.358;11.140;2023-04-06T02:05:30;-1.40;99.90
11961;DHT22;6040;49.358;11.140;2023-04-06T02:07:57;-1.40;99.90
11961;DHT22;6040;49.358;11.140;2023-04-06T02:10:24;-1.40;99.90
11961;DHT22;6040;49.358;11.140;2023-04-06T02:12:51;-1.40;99.90
11961;DHT22;6040;49.358;11.140;2023-04-06T02:15:19;-1.40;99.90
11961;DHT22;6040;49.358;11.140;2023-04-06T02:17:46;-0.60;99.90
11961;DHT22;6040;49.358;11.140;2023-04-06T02:20:13;-1.50;99.90
11961;DHT22;6040;49.358;11.140;2023-04-06T02:22:40;-1.50;99.90
11961;DHT22;6040;49.358;11.140;2023-04-06T02:25:07;-1.50;99.90
11961;DHT22;6040;49.358;11.140;2023-04-06T02:27:34;-1.50;99.90
11961;DHT22;6040;49.358;11.140;2023-04-06T02:30:01;-1.50;99.90
11961;DHT22;6040;49.358;11.140;2023-04-06T02:32:30;-1.50;99.90
11961;DHT22;6040;49.358;11.140;2023-04-06T02:34:56;-0.80;99.90
11961;DHT22;6040;49.358;11.140;2023-04-06T02:37:23;-0.10;99.90
11961;DHT22;6040;49.358;11.140;2023-04-06T02:39:50;-1.60;99.90
11961;DHT22;6040;49.358;11.140;2023-04-06T02:42:17;-1.60;99.90
11961;DHT22;6040;49.358;11.140;2023-04-06T02:44:44;0.00;99.90
11961;DHT22;6040;49.358;11.140;2023-04-06T02:47:11;-0.30;99.90
11961;DHT22;6040;49.358;11.140;2023-04-06T02:49:39;-1.20;99.90
11961;DHT22;6040;49.358;11.140;2023-04-06T02:52:06;-0.80;99.90
11961;DHT22;6040;49.358;11.140;2023-04-06T02:54:33;-1.70;99.90
11961;DHT22;6040;49.358;11.140;2023-04-06T02:57:00;-1.70;99.90
11961;DHT22;6040;49.358;11.140;2023-04-06T02:59:27;-1.70;99.90
11961;DHT22;6040;49.358;11.140;2023-04-06T03:01:54;-1.70;99.90
11961;DHT22;6040;49.358;11.140;2023-04-06T03:04:21;-1.70;99.90
11961;DHT22;6040;49.358;11.140;2023-04-06T03:06:53;-1.70;99.90
11961;DHT22;6040;49.358;11.140;2023-04-06T03:09:20;-1.80;99.90
11961;DHT22;6040;49.358;11.140;2023-04-06T03:11:47;-1.80;99.90
11961;DHT22;6040;49.358;11.140;2023-04-06T03:14:14;-1.80;99.90
11961;DHT22;6040;49.358;11.140;2023-04-06T03:16:42;-1.80;99.90
11961;DHT22;6040;49.358;11.140;2023-04-06T03:19:10;-1.10;99.90
11961;DHT22;6040;49.358;11.140;2023-04-06T03:21:36;-1.80;99.90
11961;DHT22;6040;49.358;11.140;2023-04-06T03:24:06;-1.80;99.90
11961;DHT22;6040;49.358;11.140;2023-04-06T03:26:33;-1.80;99.90
11961;DHT22;6040;49.358;11.140;2023-04-06T03:29:00;-1.80;99.90
11961;DHT22;6040;49.358;11.140;2023-04-06T03:31:27;-1.90;99.90
11961;DHT22;6040;49.358;11.140;2023-04-06T03:33:54;-1.80;99.90
11961;DHT22;6040;49.358;11.140;2023-04-06T03:36:21;-1.60;99.90
11961;DHT22;6040;49.358;11.140;2023-04-06T03:38:47;-0.20;99.90
11961;DHT22;6040;49.358;11.140;2023-04-06T03:41:16;-1.80;99.90
11961;DHT22;6040;49.358;11.140;2023-04-06T03:43:43;-1.80;99.90
11961;DHT22;6040;49.358;11.140;2023-04-06T03:46:10;-1.80;99.90
11961;DHT22;6040;49.358;11.140;2023-04-06T03:48:37;-1.90;99.90
11961;DHT22;6040;49.358;11.140;2023-04-06T03:51:04;-1.90;99.90
11961;DHT22;6040;49.358;11.140;2023-04-06T03:53:31;-1.90;99.90
11961;DHT22;6040;49.358;11.140;2023-04-06T03:55:58;-1.90;99.90
11961;DHT22;6040;49.358;11.140;2023-04-06T03:58:26;-1.90;99.90
11961;DHT22;6040;49.358;11.140;2023-04-06T04:00:53;-1.70;99.90
11961;DHT22;6040;49.358;11.140;2023-04-06T04:03:20;-1.90;99.90
11961;DHT22;6040;49.358;11.140;2023-04-06T04:05:49;-1.90;99.90
11961;DHT22;6040;49.358;11.140;2023-04-06T04:08:16;-1.20;99.90
11961;DHT22;6040;49.358;11.140;2023-04-06T04:10:43;-1.90;99.90
11961;DHT22;6040;49.358;11.140;2023-04-06T04:13:10;-0.80;99.90
11961;DHT22;6040;49.358;11.140;2023-04-06T04:15:38;-0.50;99.90
11961;DHT22;6040;49.358;11.140;2023-04-06T04:18:06;-2.00;99.90
11961;DHT22;6040;49.358;11.140;2023-04-06T04:20:33;-2.00;99.90
11961;DHT22;6040;49.358;11.140;2023-04-06T04:23:00;-2.00;99.90
11961;DHT22;6040;49.358;11.140;2023-04-06T04:25:27;-2.00;99.90
11961;DHT22;6040;49.358;11.140;2023-04-06T04:27:54;-2.10;99.90
11961;DHT22;6040;49.358;11.140;2023-04-06T04:30:21;-2.10;99.90
11961;DHT22;6040;49.358;11.140;2023-04-06T04:32:49;-2.10;99.90
11961;DHT22;6040;49.358;11.140;2023-04-06T04:35:16;-2.10;99.90
11961;DHT22;6040;49.358;11.140;2023-04-06T04:37:43;-0.50;99.90
11961;DHT22;6040;49.358;11.140;2023-04-06T04:40:11;-2.10;99.90
11961;DHT22;6040;49.358;11.140;2023-04-06T04:42:38;-2.10;99.90
11961;DHT22;6040;49.358;11.140;2023-04-06T04:45:05;-0.30;99.90
11961;DHT22;6040;49.358;11.140;2023-04-06T04:47:32;-2.10;99.90
11961;DHT22;6040;49.358;11.140;2023-04-06T04:50:00;-2.10;99.90
11961;DHT22;6040;49.358;11.140;2023-04-06T04:52:27;-2.10;99.90
11961;DHT22;6040;49.358;11.140;2023-04-06T04:54:54;-2.10;99.90
11961;DHT22;6040;49.358;11.140;2023-04-06T04:57:21;-2.10;99.90
11961;DHT22;6040;49.358;11.140;2023-04-06T04:59:48;-1.50;99.90
11961;DHT22;6040;49.358;11.140;2023-04-06T05:02:16;-2.00;99.90
11961;DHT22;6040;49.358;11.140;2023-04-06T05:04:43;-2.00;99.90
11961;DHT22;6040;49.358;11.140;2023-04-06T05:07:11;-1.60;99.90
11961;DHT22;6040;49.358;11.140;2023-04-06T05:09:38;-1.90;99.90
11961;DHT22;6040;49.358;11.140;2023-04-06T05:12:05;-1.90;99.90
11961;DHT22;6040;49.358;11.140;2023-04-06T05:14:32;-1.90;99.90
11961;DHT22;6040;49.358;11.140;2023-04-06T05:16:59;-1.80;99.90
11961;DHT22;6040;49.358;11.140;2023-04-06T05:19:26;-1.00;99.90
11961;DHT22;6040;49.358;11.140;2023-04-06T05:21:53;-1.60;99.90
11961;DHT22;6040;49.358;11.140;2023-04-06T05:24:22;-1.70;99.90
11961;DHT22;6040;49.358;11.140;2023-04-06T05:26:49;0.00;99.90
11961;DHT22;6040;49.358;11.140;2023-04-06T05:29:18;-0.50;99.90
11961;DHT22;6040;49.358;11.140;2023-04-06T05:31:45;-1.40;99.90
11961;DHT22;6040;49.358;11.140;2023-04-06T05:34:12;-0.70;99.90
11961;DHT22;6040;49.358;11.140;2023-04-06T05:36:39;0.60;99.90
11961;DHT22;6040;49.358;11.140;2023-04-06T05:39:06;2.10;99.90
11961;DHT22;6040;49.358;11.140;2023-04-06T05:41:35;3.30;99.80
11961;DHT22;6040;49.358;11.140;2023-04-06T05:44:02;5.50;98.00
11961;DHT22;6040;49.358;11.140;2023-04-06T05:46:29;5.00;96.10
11961;DHT22;6040;49.358;11.140;2023-04-06T05:48:56;5.40;94.40
11961;DHT22;6040;49.358;11.140;2023-04-06T05:51:23;5.90;93.60
11961;DHT22;6040;49.358;11.140;2023-04-06T05:53:50;6.60;92.90
11961;DHT22;6040;49.358;11.140;2023-04-06T05:56:17;6.70;92.10
11961;DHT22;6040;49.358;11.140;2023-04-06T05:58:45;7.20;91.40
11961;DHT22;6040;49.358;11.140;2023-04-06T06:01:12;7.60;91.00
11961;DHT22;6040;49.358;11.140;2023-04-06T06:03:39;7.50;89.60
11961;DHT22;6040;49.358;11.140;2023-04-06T06:06:06;8.20;89.70
11961;DHT22;6040;49.358;11.140;2023-04-06T06:08:33;8.60;88.90
11961;DHT22;6040;49.358;11.140;2023-04-06T06:11:02;9.10;88.20
11961;DHT22;6040;49.358;11.140;2023-04-06T06:13:30;9.40;86.80
11961;DHT22;6040;49.358;11.140;2023-04-06T06:15:58;9.90;85.30
11961;DHT22;6040;49.358;11.140;2023-04-06T06:18:25;10.10;83.00
11961;DHT22;6040;49.358;11.140;2023-04-06T06:20:52;10.30;82.60
11961;DHT22;6040;49.358;11.140;2023-04-06T06:23:19;10.40;82.00
11961;DHT22;6040;49.358;11.140;2023-04-06T06:25:46;10.90;81.30
11961;DHT22;6040;49.358;11.140;2023-04-06T06:28:13;11.00;79.80
11961;DHT22;6040;49.358;11.140;2023-04-06T06:30:40;11.50;79.50
11961;DHT22;6040;49.358;11.140;2023-04-06T06:33:08;11.70;77.70
11961;DHT22;6040;49.358;11.140;2023-04-06T06:35:35;12.20;77.60
11961;DHT22;6040;49.358;11.140;2023-04-06T06:38:02;12.20;76.30
11961;DHT22;6040;49.358;11.140;2023-04-06T06:40:29;12.00;77.30
11961;DHT22;6040;49.358;11.140;2023-04-06T06:42:56;12.60;76.30
11961;DHT22;6040;49.358;11.140;2023-04-06T06:45:23;12.90;74.80
11961;DHT22;6040;49.358;11.140;2023-04-06T06:47:51;13.20;74.10
11961;DHT22;6040;49.358;11.140;2023-04-06T06:50:19;13.60;74.00
11961;DHT22;6040;49.358;11.140;2023-04-06T06:52:46;13.70;73.30
11961;DHT22;6040;49.358;11.140;2023-04-06T06:55:13;13.70;72.30
11961;DHT22;6040;49.358;11.140;2023-04-06T06:57:40;13.10;73.20
11961;DHT22;6040;49.358;11.140;2023-04-06T07:00:09;14.40;74.60
11961;DHT22;6040;49.358;11.140;2023-04-06T07:02:37;13.30;72.90
11961;DHT22;6040;49.358;11.140;2023-04-06T07:05:04;13.60;72.80
11961;DHT22;6040;49.358;11.140;2023-04-06T07:07:33;13.20;73.80
11961;DHT22;6040;49.358;11.140;2023-04-06T07:10:00;12.90;74.70
11961;DHT22;6040;49.358;11.140;2023-04-06T07:12:27;12.60;75.40
11961;DHT22;6040;49.358;11.140;2023-04-06T07:14:54;12.00;76.60
11961;DHT22;6040;49.358;11.140;2023-04-06T07:17:21;11.50;77.50
11961;DHT22;6040;49.358;11.140;2023-04-06T07:19:48;11.30;80.30
11961;DHT22;6040;49.358;11.140;2023-04-06T07:22:16;11.70;81.40
11961;DHT22;6040;49.358;11.140;2023-04-06T07:24:44;11.70;77.60
11961;DHT22;6040;49.358;11.140;2023-04-06T07:27:11;11.60;78.60
11961;DHT22;6040;49.358;11.140;2023-04-06T07:29:38;12.00;78.20
11961;DHT22;6040;49.358;11.140;2023-04-06T07:32:05;12.10;76.00
11961;DHT22;6040;49.358;11.140;2023-04-06T07:34:31;12.20;76.80
11961;DHT22;6040;49.358;11.140;2023-04-06T07:36:59;12.20;74.70
11961;DHT22;6040;49.358;11.140;2023-04-06T07:39:26;12.20;77.90
11961;DHT22;6040;49.358;11.140;2023-04-06T07:41:55;12.00;75.90
11961;DHT22;6040;49.358;11.140;2023-04-06T07:44:22;12.50;79.00
11961;DHT22;6040;49.358;11.140;2023-04-06T07:46:48;12.90;77.80
11961;DHT22;6040;49.358;11.140;2023-04-06T07:49:15;13.30;77.00
11961;DHT22;6040;49.358;11.140;2023-04-06T07:51:42;13.00;74.60
11961;DHT22;6040;49.358;11.140;2023-04-06T07:54:09;13.40;73.70
11961;DHT22;6040;49.358;11.140;2023-04-06T07:56:36;13.40;71.00
11961;DHT22;6040;49.358;11.140;2023-04-06T07:59:04;13.40;72.20
11961;DHT22;6040;49.358;11.140;2023-04-06T08:01:31;13.50;74.20
11961;DHT22;6040;49.358;11.140;2023-04-06T08:03:58;13.20;70.40
11961;DHT22;6040;49.358;11.140;2023-04-06T08:06:27;13.40;73.40
11961;DHT22;6040;49.358;11.140;2023-04-06T08:08:54;13.50;72.00
11961;DHT22;6040;49.358;11.140;2023-04-06T08:11:21;13.60;71.60
11961;DHT22;6040;49.358;11.140;2023-04-06T08:13:48;14.10;72.20
11961;DHT22;6040;49.358;11.140;2023-04-06T08:16:17;14.50;72.50
11961;DHT22;6040;49.358;11.140;2023-04-06T08:18:44;14.90;71.80
11961;DHT22;6040;49.358;11.140;2023-04-06T08:21:10;14.90;68.50
11961;DHT22;6040;49.358;11.140;2023-04-06T08:23:37;14.60;67.50
11961;DHT22;6040;49.358;11.140;2023-04-06T08:26:04;14.90;71.30
11961;DHT22;6040;49.358;11.140;2023-04-06T08:28:31;14.30;69.30
11961;DHT22;6040;49.358;11.140;2023-04-06T08:31:03;14.40;68.60
11961;DHT22;6040;49.358;11.140;2023-04-06T08:33:33;14.90;70.90
11961;DHT22;6040;49.358;11.140;2023-04-06T08:36:08;14.90;69.00
11961;DHT22;6040;49.358;11.140;2023-04-06T08:38:35;14.50;64.40
11961;DHT22;6040;49.358;11.140;2023-04-06T08:41:07;14.00;69.10
11961;DHT22;6040;49.358;11.140;2023-04-06T08:43:39;14.20;69.00
11961;DHT22;6040;49.358;11.140;2023-04-06T08:46:08;14.60;71.20
11961;DHT22;6040;49.358;11.140;2023-04-06T08:48:38;14.50;67.20
11961;DHT22;6040;49.358;11.140;2023-04-06T08:51:05;14.70;70.30
11961;DHT22;6040;49.358;11.140;2023-04-06T08:53:32;14.60;64.30
11961;DHT22;6040;49.358;11.140;2023-04-06T08:55:59;14.60;67.40
11961;DHT22;6040;49.358;11.140;2023-04-06T08:58:28;14.90;70.20
11961;DHT22;6040;49.358;11.140;2023-04-06T09:00:57;15.00;65.20
11961;DHT22;6040;49.358;11.140;2023-04-06T09:03:25;15.20;62.90
11961;DHT22;6040;49.358;11.140;2023-04-06T09:05:54;14.70;64.60
11961;DHT22;6040;49.358;11.140;2023-04-06T09:08:21;14.90;68.10
11961;DHT22;6040;49.358;11.140;2023-04-06T09:10:48;15.00;67.10
11961;DHT22;6040;49.358;11.140;2023-04-06T09:13:17;14.90;61.00
11961;DHT22;6040;49.358;11.140;2023-04-06T09:15:44;15.30;63.70
11961;DHT22;6040;49.358;11.140;2023-04-06T09:18:11;15.00;62.30
11961;DHT22;6040;49.358;11.140;2023-04-06T09:20:38;15.20;65.30
11961;DHT22;6040;49.358;11.140;2023-04-06T09:23:06;15.30;62.80
11961;DHT22;6040;49.358;11.140;2023-04-06T09:25:43;14.70;64.50
11961;DHT22;6040;49.358;11.140;2023-04-06T09:28:10;14.70;66.30
11961;DHT22;6040;49.358;11.140;2023-04-06T09:30:47;15.30;67.50
11961;DHT22;6040;49.358;11.140;2023-04-06T09:33:22;15.30;63.80
11961;DHT22;6040;49.358;11.140;2023-04-06T09:35:49;15.90;67.10
11961;DHT22;6040;49.358;11.140;2023-04-06T09:38:18;16.20;61.90
11961;DHT22;6040;49.358;11.140;2023-04-06T09:40:49;16.00;64.90
11961;DHT22;6040;49.358;11.140;2023-04-06T09:43:24;15.40;59.60
11961;DHT22;6040;49.358;11.140;2023-04-06T09:45:51;15.30;62.10
11961;DHT22;6040;49.358;11.140;2023-04-06T09:48:20;15.10;61.90
11961;DHT22;6040;49.358;11.140;2023-04-06T09:50:48;15.80;64.80
11961;DHT22;6040;49.358;11.140;2023-04-06T09:53:17;16.50;63.60
11961;DHT22;6040;49.358;11.140;2023-04-06T09:55:46;16.40;61.80
11961;DHT22;6040;49.358;11.140;2023-04-06T09:58:16;16.40;60.60
11961;DHT22;6040;49.358;11.140;2023-04-06T10:00:48;16.10;59.90
11961;DHT22;6040;49.358;11.140;2023-04-06T10:03:41;14.00;59.30
11961;DHT22;6040;49.358;11.140;2023-04-06T10:06:13;14.90;60.90
11961;DHT22;6040;49.358;11.140;2023-04-06T10:08:45;15.00;66.30
11961;DHT22;6040;49.358;11.140;2023-04-06T10:11:15;15.10;61.20
11961;DHT22;6040;49.358;11.140;2023-04-06T10:13:42;15.30;64.80
11961;DHT22;6040;49.358;11.140;2023-04-06T10:16:09;15.80;59.70
11961;DHT22;6040;49.358;11.140;2023-04-06T10:18:38;16.00;57.80
11961;DHT22;6040;49.358;11.140;2023-04-06T10:21:08;16.00;61.60
11961;DHT22;6040;49.358;11.140;2023-04-06T10:23:37;16.00;59.40
11961;DHT22;6040;49.358;11.140;2023-04-06T10:26:13;16.20;63.40
11961;DHT22;6040;49.358;11.140;2023-04-06T10:28:42;16.20;58.20
11961;DHT22;6040;49.358;11.140;2023-04-06T10:31:10;15.90;62.60
11961;DHT22;6040;49.358;11.140;2023-04-06T10:33:38;16.00;61.30
11961;DHT22;6040;49.358;11.140;2023-04-06T10:36:12;16.40;61.80
11961;DHT22;6040;49.358;11.140;2023-04-06T10:38:41;16.30;56.80
11961;DHT22;6040;49.358;11.140;2023-04-06T10:41:10;15.80;58.70
11961;DHT22;6040;49.358;11.140;2023-04-06T10:43:40;15.70;57.00
11961;DHT22;6040;49.358;11.140;2023-04-06T10:46:08;15.90;61.60
11961;DHT22;6040;49.358;11.140;2023-04-06T10:48:41;16.50;62.90
11961;DHT22;6040;49.358;11.140;2023-04-06T10:53:37;17.30;60.20
11961;DHT22;6040;49.358;11.140;2023-04-06T10:56:11;17.60;59.80
11961;DHT22;6040;49.358;11.140;2023-04-06T10:58:38;17.60;61.70
11961;DHT22;6040;49.358;11.140;2023-04-06T11:01:11;18.00;61.80
11961;DHT22;6040;49.358;11.140;2023-04-06T11:03:43;18.10;60.30
11961;DHT22;6040;49.358;11.140;2023-04-06T11:06:10;18.00;59.10
11961;DHT22;6040;49.358;11.140;2023-04-06T11:08:38;18.00;59.90
11961;DHT22;6040;49.358;11.140;2023-04-06T11:11:06;17.80;55.40
11961;DHT22;6040;49.358;11.140;2023-04-06T11:13:40;17.20;53.70
11961;DHT22;6040;49.358;11.140;2023-04-06T11:16:12;16.60;55.20
11961;DHT22;6040;49.358;11.140;2023-04-06T11:18:50;15.90;55.20
11961;DHT22;6040;49.358;11.140;2023-04-06T11:21:17;15.50;56.20
11961;DHT22;6040;49.358;11.140;2023-04-06T11:23:44;15.80;58.20
11961;DHT22;6040;49.358;11.140;2023-04-06T11:26:12;16.10;56.90
11961;DHT22;6040;49.358;11.140;2023-04-06T11:28:41;16.00;57.40
11961;DHT22;6040;49.358;11.140;2023-04-06T11:31:09;16.40;62.30
11961;DHT22;6040;49.358;11.140;2023-04-06T11:33:36;16.90;59.90
11961;DHT22;6040;49.358;11.140;2023-04-06T11:36:04;17.30;57.90
11961;DHT22;6040;49.358;11.140;2023-04-06T11:38:32;17.20;59.40
11961;DHT22;6040;49.358;11.140;2023-04-06T11:41:00;17.30;58.70
11961;DHT22;6040;49.358;11.140;2023-04-06T11:43:28;17.20;60.20
11961;DHT22;6040;49.358;11.140;2023-04-06T11:46:01;17.30;58.40
11961;DHT22;6040;49.358;11.140;2023-04-06T11:48:29;17.10;55.80
11961;DHT22;6040;49.358;11.140;2023-04-06T11:50:56;17.30;59.60
11961;DHT22;6040;49.358;11.140;2023-04-06T11:53:26;17.60;58.20
11961;DHT22;6040;49.358;11.140;2023-04-06T11:55:53;17.90;59.50
11961;DHT22;6040;49.358;11.140;2023-04-06T11:58:20;17.70;54.00
11961;DHT22;6040;49.358;11.140;2023-04-06T12:00:47;17.10;55.10
11961;DHT22;6040;49.358;11.140;2023-04-06T12:03:15;17.10;55.30
11961;DHT22;6040;49.358;11.140;2023-04-06T12:05:44;16.50;54.70
11961;DHT22;6040;49.358;11.140;2023-04-06T12:08:11;16.30;57.30
11961;DHT22;6040;49.358;11.140;2023-04-06T12:10:38;16.80;57.20
11961;DHT22;6040;49.358;11.140;2023-04-06T12:13:05;17.10;56.70
11961;DHT22;6040;49.358;11.140;2023-04-06T12:15:32;17.20;56.00
11961;DHT22;6040;49.358;11.140;2023-04-06T12:17:59;16.70;54.10
11961;DHT22;6040;49.358;11.140;2023-04-06T12:20:27;16.40;56.30
11961;DHT22;6040;49.358;11.140;2023-04-06T12:22:54;16.60;57.30
11961;DHT22;6040;49.358;11.140;2023-04-06T12:25:21;17.10;57.30
11961;DHT22;6040;49.358;11.140;2023-04-06T12:27:49;17.40;57.90
11961;DHT22;6040;49.358;11.140;2023-04-06T12:30:16;17.80;56.90
11961;DHT22;6040;49.358;11.140;2023-04-06T12:32:43;18.10;57.00
11961;DHT22;6040;49.358;11.140;2023-04-06T12:35:10;18.20;54.40
11961;DHT22;6040;49.358;11.140;2023-04-06T12:37:42;18.10;53.20
11961;DHT22;6040;49.358;11.140;2023-04-06T12:40:10;17.80;56.20
11961;DHT22;6040;49.358;11.140;2023-04-06T12:42:38;17.30;50.80
11961;DHT22;6040;49.358;11.140;2023-04-06T12:45:07;17.00;53.30
11961;DHT22;6040;49.358;11.140;2023-04-06T12:47:34;16.80;54.10
11961;DHT22;6040;49.358;11.140;2023-04-06T12:50:04;16.90;49.90
11961;DHT22;6040;49.358;11.140;2023-04-06T12:52:32;16.70;53.40
11961;DHT22;6040;49.358;11.140;2023-04-06T12:55:02;16.40;54.00
11961;DHT22;6040;49.358;11.140;2023-04-06T12:57:30;16.30;56.80
11961;DHT22;6040;49.358;11.140;2023-04-06T12:59:57;16.20;53.80
11961;DHT22;6040;49.358;11.140;2023-04-06T13:02:25;16.10;55.40
11961;DHT22;6040;49.358;11.140;2023-04-06T13:04:52;15.90;54.20
11961;DHT22;6040;49.358;11.140;2023-04-06T13:07:19;15.90;54.00
11961;DHT22;6040;49.358;11.140;2023-04-06T13:09:46;15.70;54.60
11961;DHT22;6040;49.358;11.140;2023-04-06T13:12:16;15.60;52.30
11961;DHT22;6040;49.358;11.140;2023-04-06T13:14:43;15.60;53.30
11961;DHT22;6040;49.358;11.140;2023-04-06T13:17:13;15.50;55.50
11961;DHT22;6040;49.358;11.140;2023-04-06T13:19:40;15.30;57.30
11961;DHT22;6040;49.358;11.140;2023-04-06T13:22:06;15.50;56.00
11961;DHT22;6040;49.358;11.140;2023-04-06T13:24:33;15.20;55.60
11961;DHT22;6040;49.358;11.140;2023-04-06T13:27:00;15.30;56.40
11961;DHT22;6040;49.358;11.140;2023-04-06T13:29:29;15.50;56.00
11961;DHT22;6040;49.358;11.140;2023-04-06T13:31:56;15.80;57.50
11961;DHT22;6040;49.358;11.140;2023-04-06T13:34:23;15.90;56.60
11961;DHT22;6040;49.358;11.140;2023-04-06T13:36:50;15.50;53.60
11961;DHT22;6040;49.358;11.140;2023-04-06T13:39:17;15.00;54.40
11961;DHT22;6040;49.358;11.140;2023-04-06T13:41:44;14.50;55.40
11961;DHT22;6040;49.358;11.140;2023-04-06T13:44:11;14.20;55.40
11961;DHT22;6040;49.358;11.140;2023-04-06T13:46:39;14.20;55.70
11961;DHT22;6040;49.358;11.140;2023-04-06T13:49:06;14.30;57.80
11961;DHT22;6040;49.358;11.140;2023-04-06T13:51:33;14.50;58.60
11961;DHT22;6040;49.358;11.140;2023-04-06T13:54:00;14.70;58.30
11961;DHT22;6040;49.358;11.140;2023-04-06T13:56:27;14.70;56.00
11961;DHT22;6040;49.358;11.140;2023-04-06T13:58:55;14.80;58.60
11961;DHT22;6040;49.358;11.140;2023-04-06T14:01:22;15.60;56.60
11961;DHT22;6040;49.358;11.140;2023-04-06T14:03:52;14.50;55.00
11961;DHT22;6040;49.358;11.140;2023-04-06T14:06:19;14.20;55.90
11961;DHT22;6040;49.358;11.140;2023-04-06T14:08:45;13.90;57.20
11961;DHT22;6040;49.358;11.140;2023-04-06T14:11:13;13.90;55.20
11961;DHT22;6040;49.358;11.140;2023-04-06T14:13:40;13.50;56.00
11961;DHT22;6040;49.358;11.140;2023-04-06T14:16:07;13.20;55.70
11961;DHT22;6040;49.358;11.140;2023-04-06T14:18:35;13.00;56.10
11961;DHT22;6040;49.358;11.140;2023-04-06T14:21:04;13.00;56.70
11961;DHT22;6040;49.358;11.140;2023-04-06T14:23:31;12.90;56.80
11961;DHT22;6040;49.358;11.140;2023-04-06T14:26:02;13.80;57.30
11961;DHT22;6040;49.358;11.140;2023-04-06T14:28:31;13.00;56.90
11961;DHT22;6040;49.358;11.140;2023-04-06T14:30:59;13.20;57.40
11961;DHT22;6040;49.358;11.140;2023-04-06T14:33:26;13.30;57.50
11961;DHT22;6040;49.358;11.140;2023-04-06T14:35:53;13.50;57.30
11961;DHT22;6040;49.358;11.140;2023-04-06T14:38:21;13.70;57.40
11961;DHT22;6040;49.358;11.140;2023-04-06T14:40:48;13.80;57.30
11961;DHT22;6040;49.358;11.140;2023-04-06T14:43:15;15.50;60.10
11961;DHT22;6040;49.358;11.140;2023-04-06T14:45:42;14.00;58.80
11961;DHT22;6040;49.358;11.140;2023-04-06T14:48:09;14.10;59.10
11961;DHT22;6040;49.358;11.140;2023-04-06T14:50:38;13.60;58.40
11961;DHT22;6040;49.358;11.140;2023-04-06T14:53:05;14.00;59.00
11961;DHT22;6040;49.358;11.140;2023-04-06T14:55:39;14.20;59.20
11961;DHT22;6040;49.358;11.140;2023-04-06T14:58:06;13.40;58.80
11961;DHT22;6040;49.358;11.140;2023-04-06T15:00:33;13.20;59.30
11961;DHT22;6040;49.358;11.140;2023-04-06T15:03:00;13.10;58.90
11961;DHT22;6040;49.358;11.140;2023-04-06T15:05:27;13.20;59.40
11961;DHT22;6040;49.358;11.140;2023-04-06T15:07:54;13.30;59.20
11961;DHT22;6040;49.358;11.140;2023-04-06T15:10:21;13.50;58.80
11961;DHT22;6040;49.358;11.140;2023-04-06T15:12:49;14.30;59.50
11961;DHT22;6040;49.358;11.140;2023-04-06T15:15:16;13.50;58.50
11961;DHT22;6040;49.358;11.140;2023-04-06T15:17:43;13.20;58.60
11961;DHT22;6040;49.358;11.140;2023-04-06T15:20:10;13.30;57.50
11961;DHT22;6040;49.358;11.140;2023-04-06T15:22:37;13.30;56.30
11961;DHT22;6040;49.358;11.140;2023-04-06T15:25:05;13.30;56.40
11961;DHT22;6040;49.358;11.140;2023-04-06T15:27:32;13.10;56.90
11961;DHT22;6040;49.358;11.140;2023-04-06T15:30:00;13.20;58.40
11961;DHT22;6040;49.358;11.140;2023-04-06T15:32:27;13.20;57.50
11961;DHT22;6040;49.358;11.140;2023-04-06T15:34:57;13.10;57.60
11961;DHT22;6040;49.358;11.140;2023-04-06T15:37:24;13.10;58.20